Terminal Aerodrome Forecast
Issued by NWS

Home | Current Version | Previous Version | Text Only | Print | Product List | Glossary On
Versions: 1 2 3 4 5 6 7 8 9 10 11 12
000
FTUS44 KLZK 310800 AAA
TAFADF
TAF AMD
KADF 310818Z 3108/0106 04003KT 5SM -SHRA BR OVC003
      TEMPO 3108/3112 3SM RA BR OVC006
     FM311300 11005KT 4SM -SHRA BR OVC025
      TEMPO 3113/3117 3SM TSRA BR OVC015CB
     FM311700 09007KT 5SM -SHRA BR OVC025
     FM010100 09003KT P6SM OVC040=

USA.gov is the U.S. government's official web portal to all federal, state and local government web resources and services.